createdAt,value
2023-03-05T00:00:14.643Z,24.38
2023-03-05T00:00:46.454Z,23.20
2023-03-05T00:01:22.600Z,21.45
2023-03-05T00:01:54.581Z,21.50
2023-03-05T00:02:26.498Z,21.15
2023-03-05T00:02:59.333Z,24.60
2023-03-05T00:03:31.169Z,21.20
2023-03-05T00:04:05.275Z,23.17
2023-03-05T00:04:38.201Z,21.77
2023-03-05T00:05:10.858Z,23.90
2023-03-05T00:05:42.661Z,23.70
2023-03-05T00:06:17.305Z,21.77
2023-03-05T00:06:49.222Z,22.15
2023-03-05T00:07:21.996Z,22.63
2023-03-05T00:07:53.768Z,22.98
2023-03-05T00:08:25.672Z,23.23
2023-03-05T00:08:58.375Z,23.63
2023-03-05T00:09:31.270Z,23.05
2023-03-05T00:10:04.877Z,23.90
2023-03-05T00:10:36.732Z,22.92
2023-03-05T00:11:11.828Z,22.05
2023-03-05T00:11:43.824Z,22.60
2023-03-05T00:12:17.156Z,21.38
2023-03-05T00:12:48.966Z,20.50
2023-03-05T00:13:22.235Z,22.15
2023-03-05T00:13:55.469Z,21.73
2023-03-05T00:14:27.356Z,21.75
2023-03-05T00:14:59.186Z,23.02
2023-03-05T00:15:32.005Z,22.02
2023-03-05T00:16:05.023Z,21.80
2023-03-05T00:16:36.805Z,21.63
2023-03-05T00:17:09.715Z,22.65
2023-03-05T00:17:41.570Z,22.90
2023-03-05T00:18:13.375Z,23.63
2023-03-05T00:18:46.244Z,23.40
2023-03-05T00:19:18.090Z,22.60
2023-03-05T00:19:50.622Z,22.15
2023-03-05T00:20:23.416Z,20.58
2023-03-05T00:20:55.268Z,21.67
2023-03-05T00:21:29.734Z,21.60
2023-03-05T00:22:02.502Z,22.52
2023-03-05T00:22:34.686Z,21.42
2023-03-05T00:23:06.530Z,22.52
2023-03-05T00:23:38.329Z,21.20
2023-03-05T00:24:13.612Z,20.85
2023-03-05T00:24:45.438Z,19.88
2023-03-05T00:25:17.302Z,20.85
2023-03-05T00:25:50.138Z,21.85
2023-03-05T00:26:24.282Z,21.50
2023-03-05T00:26:57.253Z,22.42
2023-03-05T00:27:29.045Z,22.02
2023-03-05T00:28:00.856Z,21.40
2023-03-05T00:28:34.072Z,20.77
2023-03-05T00:29:08.458Z,23.75
2023-03-05T00:29:40.300Z,20.70
2023-03-05T00:30:13.308Z,23.73
2023-03-05T00:30:45.151Z,23.08
2023-03-05T00:31:18.175Z,20.88
2023-03-05T00:31:50.262Z,22.52
2023-03-05T00:32:22.219Z,21.58
2023-03-05T00:32:55.042Z,21.85
2023-03-05T00:33:27.075Z,20.65
2023-03-05T00:34:01.356Z,19.92
2023-03-05T00:34:34.214Z,23.05
2023-03-05T00:35:06.801Z,23.17
2023-03-05T00:35:42.603Z,22.98
2023-03-05T00:36:15.408Z,19.73
2023-03-05T00:36:49.572Z,21.65
2023-03-05T00:37:21.393Z,21.55
2023-03-05T00:37:54.559Z,21.55
2023-03-05T00:38:26.372Z,20.50
2023-03-05T00:38:58.724Z,21.13
2023-03-05T00:39:31.471Z,20.85
2023-03-05T00:40:04.106Z,22.35
2023-03-05T00:40:37.415Z,22.10
2023-03-05T00:41:10.238Z,22.95
2023-03-05T00:41:42.043Z,22.65
2023-03-05T00:42:13.908Z,22.33
2023-03-05T00:42:46.774Z,22.25
2023-03-05T00:43:18.574Z,22.90
2023-03-05T00:43:51.720Z,23.13
2023-03-05T00:44:24.507Z,18.90
2023-03-05T00:44:56.321Z,24.58
2023-03-05T00:45:28.159Z,22.25
2023-03-05T00:46:00.057Z,22.95
2023-03-05T00:46:32.988Z,21.92
2023-03-05T00:47:05.016Z,22.85
2023-03-05T00:47:37.198Z,21.23
2023-03-05T00:48:10.872Z,23.00
2023-03-05T00:48:42.671Z,21.60
2023-03-05T00:49:14.716Z,20.65
2023-03-05T00:49:47.592Z,23.90
2023-03-05T00:50:19.749Z,22.33
2023-03-05T00:50:51.756Z,22.77
2023-03-05T00:51:24.350Z,23.90
2023-03-05T00:51:57.090Z,23.15
2023-03-05T00:52:28.994Z,22.38
2023-03-05T00:53:00.798Z,22.60
2023-03-05T00:53:32.621Z,23.75
2023-03-05T00:54:06.398Z,22.33
2023-03-05T00:54:38.186Z,20.33
2023-03-05T00:55:10.398Z,22.77
2023-03-05T00:55:43.317Z,20.95
2023-03-05T00:56:16.218Z,21.85
2023-03-05T00:56:49.073Z,21.77
2023-03-05T00:57:20.967Z,22.40
2023-03-05T00:57:53.730Z,22.13
2023-03-05T00:58:25.719Z,22.25
2023-03-05T00:58:58.891Z,22.52
2023-03-05T00:59:30.909Z,22.85
2023-03-05T01:00:04.590Z,25.00
2023-03-05T01:00:36.620Z,24.27
2023-03-05T01:01:08.553Z,22.63
2023-03-05T01:01:41.541Z,21.92
2023-03-05T01:02:13.667Z,21.27
2023-03-05T01:02:45.583Z,22.75
2023-03-05T01:03:17.516Z,23.02
2023-03-05T01:03:50.376Z,24.67
2023-03-05T01:04:22.310Z,22.30
2023-03-05T01:04:54.130Z,23.05
2023-03-05T01:05:26.021Z,22.98
2023-03-05T01:05:59.401Z,23.38
2023-03-05T01:06:31.269Z,21.55
2023-03-05T01:07:03.111Z,23.88
2023-03-05T01:07:35.899Z,21.02
2023-03-05T01:08:07.746Z,23.92
2023-03-05T01:08:39.824Z,22.30
2023-03-05T01:09:12.667Z,22.92
2023-03-05T01:09:44.510Z,24.17
2023-03-05T01:10:16.604Z,22.88
2023-03-05T01:10:49.516Z,23.52
2023-03-05T01:11:21.343Z,22.85
2023-03-05T01:11:54.779Z,23.27
2023-03-05T01:12:26.567Z,20.80
2023-03-05T01:12:58.397Z,24.52
2023-03-05T01:13:31.231Z,21.50
2023-03-05T01:14:04.454Z,20.40
2023-03-05T01:14:36.654Z,22.75
2023-03-05T01:15:09.878Z,21.98
2023-03-05T01:15:41.807Z,21.65
2023-03-05T01:16:13.756Z,21.48
2023-03-05T01:16:46.933Z,23.17
2023-03-05T01:17:18.747Z,21.55
2023-03-05T01:17:50.868Z,20.00
2023-03-05T01:18:22.676Z,22.35
2023-03-05T01:18:55.587Z,21.00
2023-03-05T01:19:27.423Z,20.38
2023-03-05T01:19:59.244Z,21.13
2023-03-05T01:20:31.070Z,21.73
2023-03-05T01:21:05.392Z,21.35
2023-03-05T01:21:37.693Z,22.25
2023-03-05T01:22:09.456Z,21.50
2023-03-05T01:22:42.227Z,21.85
2023-03-05T01:23:14.200Z,20.20
2023-03-05T01:23:46.113Z,20.95
2023-03-05T01:24:18.867Z,21.25
2023-03-05T01:24:50.724Z,20.02
2023-03-05T01:25:22.521Z,19.98
2023-03-05T01:25:55.053Z,18.50
2023-03-05T01:26:28.171Z,17.65
2023-03-05T01:26:59.989Z,20.00
2023-03-05T01:27:31.961Z,22.45
2023-03-05T01:28:05.200Z,20.17
2023-03-05T01:28:38.404Z,20.27
2023-03-05T01:29:11.750Z,21.70
2023-03-05T01:29:44.558Z,20.67
2023-03-05T01:30:16.548Z,21.27
2023-03-05T01:30:48.362Z,20.00
2023-03-05T01:31:21.305Z,20.85
2023-03-05T01:31:53.205Z,20.63
2023-03-05T01:32:25.085Z,19.95
2023-03-05T01:32:56.998Z,21.35
2023-03-05T01:33:29.800Z,20.15
2023-03-05T01:34:01.625Z,21.20
2023-03-05T01:34:33.490Z,20.42
2023-03-05T01:35:07.777Z,21.13
2023-03-05T01:35:39.591Z,20.80
2023-03-05T01:36:14.723Z,19.88
2023-03-05T01:36:49.869Z,20.10
2023-03-05T01:37:21.686Z,19.70
2023-03-05T01:37:54.414Z,19.63
2023-03-05T01:38:27.265Z,21.35
2023-03-05T01:38:59.219Z,19.85
2023-03-05T01:39:31.145Z,22.00
2023-03-05T01:40:03.988Z,20.75
2023-03-05T01:40:35.781Z,20.65
2023-03-05T01:41:08.398Z,19.45
2023-03-05T01:41:41.219Z,19.17
2023-03-05T01:42:13.036Z,20.75
2023-03-05T01:42:46.975Z,19.85
2023-03-05T01:43:26.042Z,20.25
2023-03-05T01:43:57.962Z,17.80
2023-03-05T01:44:32.892Z,20.33
2023-03-05T01:45:07.664Z,19.85
2023-03-05T01:45:59.756Z,18.08
2023-03-05T01:46:35.680Z,17.80
2023-03-05T01:47:07.471Z,18.00
2023-03-05T01:47:40.211Z,20.67
2023-03-05T01:48:13.162Z,18.52
2023-03-05T01:48:49.493Z,17.08
2023-03-05T01:49:25.660Z,19.65
2023-03-05T01:49:57.618Z,19.70
2023-03-05T01:50:29.764Z,17.42
2023-03-05T01:51:01.592Z,18.33
2023-03-05T01:51:38.962Z,18.98
2023-03-05T01:52:17.501Z,20.60
2023-03-05T01:52:54.394Z,19.73
2023-03-05T01:53:26.242Z,19.70
2023-03-05T01:53:59.453Z,22.90
2023-03-05T01:54:36.122Z,18.48
2023-03-05T01:55:12.149Z,19.00
2023-03-05T01:55:44.173Z,18.88
2023-03-05T01:56:16.605Z,18.05
2023-03-05T01:56:51.091Z,17.67
2023-03-05T01:57:27.983Z,18.58
2023-03-05T01:58:03.136Z,18.20
2023-03-05T01:58:36.105Z,18.55
2023-03-05T01:59:08.766Z,18.17
2023-03-05T01:59:44.570Z,18.15
2023-03-05T02:00:19.687Z,18.38
2023-03-05T02:00:54.173Z,18.98
2023-03-05T02:01:26.283Z,17.38
2023-03-05T02:02:00.338Z,16.73
2023-03-05T02:02:32.682Z,17.90
2023-03-05T02:03:07.433Z,20.42
2023-03-05T02:03:41.523Z,18.63
2023-03-05T02:04:16.936Z,19.15
2023-03-05T02:04:52.545Z,19.50
2023-03-05T02:05:28.797Z,18.40
2023-03-05T02:06:00.622Z,18.88
2023-03-05T02:06:33.700Z,19.85
2023-03-05T02:07:05.907Z,21.00
2023-03-05T02:07:40.061Z,20.35
2023-03-05T02:08:15.364Z,20.45
2023-03-05T02:08:47.241Z,19.50
2023-03-05T02:09:23.413Z,20.27
2023-03-05T02:09:55.312Z,19.50
2023-03-05T02:10:29.696Z,19.25
2023-03-05T02:11:02.779Z,19.27
2023-03-05T02:11:34.906Z,18.58
2023-03-05T02:12:07.733Z,19.30
2023-03-05T02:12:41.200Z,19.63
2023-03-05T02:13:15.651Z,18.35
2023-03-05T02:13:47.698Z,20.90
2023-03-05T02:14:21.179Z,19.75
2023-03-05T02:14:59.168Z,19.48
2023-03-05T02:15:32.529Z,19.00
2023-03-05T02:16:05.877Z,21.00
2023-03-05T02:16:38.546Z,19.30
2023-03-05T02:17:11.517Z,16.73
2023-03-05T02:17:44.493Z,20.10
2023-03-05T02:18:17.327Z,20.50
2023-03-05T02:18:49.147Z,18.20
2023-03-05T02:19:21.899Z,20.20
2023-03-05T02:19:55.424Z,20.33
2023-03-05T02:20:29.913Z,18.52
2023-03-05T02:21:05.854Z,20.85
2023-03-05T02:21:39.942Z,20.65
2023-03-05T02:22:14.879Z,18.88
2023-03-05T02:22:48.119Z,19.90
2023-03-05T02:23:22.482Z,19.40
2023-03-05T02:23:54.589Z,21.13
2023-03-05T02:24:35.995Z,21.17
2023-03-05T02:25:19.006Z,19.27
2023-03-05T02:25:51.466Z,21.20
2023-03-05T02:26:24.208Z,18.90
2023-03-05T02:26:56.123Z,18.23
2023-03-05T02:27:34.954Z,20.13
2023-03-05T02:28:13.995Z,19.80
2023-03-05T02:28:49.338Z,19.30
2023-03-05T02:29:21.352Z,18.13
2023-03-05T02:29:54.127Z,20.23
2023-03-05T02:30:26.080Z,20.30
2023-03-05T02:30:58.029Z,19.70
2023-03-05T02:31:31.956Z,20.02
2023-03-05T02:32:04.326Z,19.08
2023-03-05T02:32:36.251Z,20.45
2023-03-05T02:33:09.252Z,20.27
2023-03-05T02:33:41.360Z,20.02
2023-03-05T02:34:13.231Z,19.40
2023-03-05T02:34:45.043Z,20.42
2023-03-05T02:35:17.946Z,19.70
2023-03-05T02:35:49.928Z,20.00
2023-03-05T02:36:23.753Z,19.92
2023-03-05T02:36:56.540Z,17.75
2023-03-05T02:37:28.356Z,21.48
2023-03-05T02:38:00.487Z,20.05
2023-03-05T02:38:33.308Z,18.27
2023-03-05T02:39:05.229Z,19.15
2023-03-05T02:39:39.512Z,20.73
2023-03-05T02:40:13.233Z,19.60
2023-03-05T02:40:45.205Z,18.70
2023-03-05T02:41:17.975Z,18.67
2023-03-05T02:41:49.838Z,18.83
2023-03-05T02:42:21.652Z,19.25
2023-03-05T02:42:54.865Z,19.15
2023-03-05T02:43:26.924Z,17.88
2023-03-05T02:43:58.771Z,19.95
2023-03-05T02:44:31.648Z,18.35
2023-03-05T02:45:04.514Z,20.75
2023-03-05T02:45:36.671Z,20.08
2023-03-05T02:46:09.769Z,20.15
2023-03-05T02:46:41.706Z,19.88
2023-03-05T02:47:13.507Z,19.55
2023-03-05T02:47:46.405Z,20.00
2023-03-05T02:48:18.171Z,18.98
2023-03-05T02:48:50.253Z,19.73
2023-03-05T02:49:22.017Z,19.42
2023-03-05T02:49:55.016Z,21.52
2023-03-05T02:50:27.244Z,18.08
2023-03-05T02:50:59.431Z,21.30
2023-03-05T02:51:33.529Z,19.60
2023-03-05T02:52:06.020Z,20.17
2023-03-05T02:52:38.326Z,21.45
2023-03-05T02:53:11.114Z,20.77
2023-03-05T02:53:42.908Z,19.17
2023-03-05T02:54:14.703Z,20.02
2023-03-05T02:54:46.494Z,21.60
2023-03-05T02:55:19.241Z,20.88
2023-03-05T02:55:51.080Z,17.48
2023-03-05T02:56:22.897Z,20.48
2023-03-05T02:56:55.662Z,20.83
2023-03-05T02:57:27.502Z,20.63
2023-03-05T02:57:59.344Z,22.30
2023-03-05T02:58:32.089Z,20.30
2023-03-05T02:59:03.939Z,17.60
2023-03-05T02:59:35.796Z,20.80
2023-03-05T03:00:10.634Z,20.45
2023-03-05T03:00:42.708Z,19.25
2023-03-05T03:01:14.647Z,19.13
2023-03-05T03:01:47.431Z,18.67
2023-03-05T03:02:19.226Z,19.63
2023-03-05T03:02:51.130Z,18.92
2023-03-05T03:03:24.009Z,19.88
2023-03-05T03:03:55.999Z,20.23
2023-03-05T03:04:27.766Z,19.27
2023-03-05T03:05:00.546Z,20.13
2023-03-05T03:05:32.436Z,18.80
2023-03-05T03:06:04.840Z,20.15
2023-03-05T03:06:39.029Z,21.75
2023-03-05T03:07:11.488Z,20.45
2023-03-05T03:07:43.321Z,20.40
2023-03-05T03:08:16.131Z,19.13
2023-03-05T03:08:47.957Z,21.10
2023-03-05T03:09:20.878Z,20.40
2023-03-05T03:09:52.794Z,20.75
2023-03-05T03:10:24.671Z,19.52
2023-03-05T03:10:57.491Z,19.17
2023-03-05T03:11:29.307Z,19.58
2023-03-05T03:12:01.188Z,20.77
2023-03-05T03:12:38.131Z,18.25
2023-03-05T03:13:09.984Z,22.13
2023-03-05T03:13:42.126Z,19.60
2023-03-05T03:14:14.959Z,21.42
2023-03-05T03:14:46.843Z,20.02
2023-03-05T03:15:18.937Z,19.38
2023-03-05T03:15:51.872Z,18.90
2023-03-05T03:16:23.717Z,21.98
2023-03-05T03:16:55.610Z,19.83
2023-03-05T03:17:28.472Z,18.40
2023-03-05T03:18:00.316Z,20.08
2023-03-05T03:18:32.151Z,19.38
2023-03-05T03:19:04.978Z,19.08
2023-03-05T03:19:37.216Z,20.02
2023-03-05T03:20:13.911Z,19.50
2023-03-05T03:20:47.128Z,19.23
2023-03-05T03:21:21.460Z,18.05
2023-03-05T03:21:55.008Z,20.48
2023-03-05T03:22:27.804Z,20.50
2023-03-05T03:22:59.662Z,19.92
2023-03-05T03:23:31.858Z,19.85
2023-03-05T03:24:05.043Z,18.65
2023-03-05T03:24:39.029Z,20.23
2023-03-05T03:25:13.799Z,20.27
2023-03-05T03:25:46.520Z,19.67
2023-03-05T03:26:18.679Z,21.15
2023-03-05T03:26:50.459Z,18.75
2023-03-05T03:27:23.806Z,19.42
2023-03-05T03:27:55.691Z,17.73
2023-03-05T03:28:27.494Z,20.02
2023-03-05T03:29:00.270Z,19.83
2023-03-05T03:29:32.420Z,19.85
2023-03-05T03:30:05.501Z,19.27
2023-03-05T03:30:38.289Z,20.15
2023-03-05T03:31:10.206Z,20.20
2023-03-05T03:31:42.163Z,21.00
2023-03-05T03:32:14.077Z,21.00
2023-03-05T03:32:46.858Z,20.88
2023-03-05T03:33:18.749Z,19.20
2023-03-05T03:33:51.681Z,21.50
2023-03-05T03:34:23.663Z,19.92
2023-03-05T03:34:55.456Z,20.58
2023-03-05T03:35:28.270Z,20.10
2023-03-05T03:36:00.393Z,21.33
2023-03-05T03:36:32.271Z,19.08
2023-03-05T03:37:06.677Z,19.13
2023-03-05T03:37:38.745Z,19.48
2023-03-05T03:38:11.764Z,20.25
2023-03-05T03:38:43.608Z,19.83
2023-03-05T03:39:17.223Z,18.38
2023-03-05T03:39:49.037Z,19.73
2023-03-05T03:40:22.004Z,19.70
2023-03-05T03:40:53.797Z,20.27
2023-03-05T03:41:25.598Z,19.65
2023-03-05T03:41:58.331Z,20.67
2023-03-05T03:42:30.143Z,19.75
2023-03-05T03:43:01.967Z,18.30
2023-03-05T03:43:34.814Z,20.40
2023-03-05T03:44:08.678Z,20.33
2023-03-05T03:44:40.451Z,20.00
2023-03-05T03:45:13.182Z,19.85
2023-03-05T03:45:46.041Z,19.05
2023-03-05T03:46:17.970Z,18.73
2023-03-05T03:46:50.861Z,20.50
2023-03-05T03:47:23.702Z,19.88
2023-03-05T03:47:55.552Z,20.27
2023-03-05T03:48:28.317Z,21.17
2023-03-05T03:49:00.171Z,20.58
2023-03-05T03:49:31.977Z,19.95
2023-03-05T03:50:05.991Z,20.38
2023-03-05T03:50:39.359Z,18.75
2023-03-05T03:51:11.155Z,21.23
2023-03-05T03:51:44.087Z,19.52
2023-03-05T03:52:17.318Z,21.05
2023-03-05T03:52:49.080Z,21.02
2023-03-05T03:53:21.851Z,19.58
2023-03-05T03:53:54.026Z,21.92
2023-03-05T03:54:25.841Z,20.50
2023-03-05T03:55:01.507Z,20.70
2023-03-05T03:55:33.531Z,19.35
2023-03-05T03:56:05.886Z,21.90
2023-03-05T03:56:38.669Z,21.30
2023-03-05T03:57:10.479Z,19.02
2023-03-05T03:57:43.605Z,20.42
2023-03-05T03:58:15.423Z,22.15
2023-03-05T03:58:49.889Z,20.67
2023-03-05T03:59:22.795Z,22.50
2023-03-05T03:59:54.609Z,18.33
2023-03-05T04:00:27.874Z,21.13
2023-03-05T04:01:00.684Z,20.52
2023-03-05T04:01:32.552Z,20.45
2023-03-05T04:02:04.336Z,21.17
2023-03-05T04:02:37.364Z,18.77
2023-03-05T04:03:09.355Z,19.90
2023-03-05T04:03:41.161Z,20.05
2023-03-05T04:04:14.548Z,21.27
2023-03-05T04:04:46.377Z,19.75
2023-03-05T04:05:18.290Z,22.30
2023-03-05T04:05:51.028Z,21.42
2023-03-05T04:06:22.917Z,20.33
2023-03-05T04:06:54.705Z,19.48
2023-03-05T04:07:28.837Z,20.77
2023-03-05T04:08:01.359Z,19.85
2023-03-05T04:08:33.210Z,20.80
2023-03-05T04:09:07.999Z,20.27
2023-03-05T04:09:39.797Z,18.80
2023-03-05T04:10:12.304Z,20.65
2023-03-05T04:10:45.349Z,20.88
2023-03-05T04:11:19.246Z,21.80
2023-03-05T04:11:51.083Z,19.05
2023-03-05T04:12:23.049Z,20.60
2023-03-05T04:12:55.837Z,21.40
2023-03-05T04:13:27.662Z,19.17
2023-03-05T04:13:59.480Z,20.40
2023-03-05T04:14:31.257Z,19.95
2023-03-05T04:15:04.372Z,19.90
2023-03-05T04:15:36.175Z,21.67
2023-03-05T04:16:08.367Z,23.30
2023-03-05T04:16:40.215Z,19.25
2023-03-05T04:17:13.248Z,20.20
2023-03-05T04:17:45.069Z,22.15
2023-03-05T04:18:16.927Z,21.25
2023-03-05T04:18:49.755Z,19.13
2023-03-05T04:19:21.876Z,20.15
2023-03-05T04:19:53.690Z,21.30
2023-03-05T04:20:25.542Z,20.85
2023-03-05T04:20:58.344Z,20.08
2023-03-05T04:21:30.383Z,20.15
2023-03-05T04:22:02.198Z,19.45
2023-03-05T04:22:36.323Z,21.50
2023-03-05T04:23:08.114Z,19.85
2023-03-05T04:23:40.458Z,19.23
2023-03-05T04:24:13.214Z,19.05
2023-03-05T04:24:45.093Z,19.88
2023-03-05T04:25:17.090Z,17.02
2023-03-05T04:25:49.895Z,20.02
2023-03-05T04:26:21.706Z,19.63
2023-03-05T04:26:53.496Z,20.60
2023-03-05T04:27:26.246Z,19.27
2023-03-05T04:27:58.023Z,19.30
2023-03-05T04:28:29.850Z,19.08
2023-03-05T04:29:02.740Z,20.30
2023-03-05T04:29:35.096Z,21.08
2023-03-05T04:30:08.783Z,21.67
2023-03-05T04:30:41.640Z,21.20
2023-03-05T04:31:13.693Z,18.20
2023-03-05T04:31:45.567Z,19.13
2023-03-05T04:32:23.004Z,19.88
2023-03-05T04:32:54.910Z,19.45
2023-03-05T04:33:26.868Z,19.23
2023-03-05T04:34:00.819Z,20.00
2023-03-05T04:34:33.149Z,20.02
2023-03-05T04:35:05.540Z,22.40
2023-03-05T04:35:38.511Z,20.67
2023-03-05T04:36:10.333Z,20.38
2023-03-05T04:36:42.213Z,19.85
2023-03-05T04:37:14.968Z,17.63
2023-03-05T04:37:49.064Z,20.45
2023-03-05T04:38:20.858Z,21.15
2023-03-05T04:38:52.727Z,19.83
2023-03-05T04:39:25.624Z,18.77
2023-03-05T04:39:57.465Z,19.88
2023-03-05T04:40:29.321Z,21.88
2023-03-05T04:41:02.074Z,19.58
2023-03-05T04:41:33.898Z,20.42
2023-03-05T04:42:06.208Z,19.00
2023-03-05T04:42:39.003Z,17.60
2023-03-05T04:43:10.903Z,19.40
2023-03-05T04:43:42.746Z,20.05
2023-03-05T04:44:15.887Z,18.15
2023-03-05T04:44:49.366Z,19.48
2023-03-05T04:45:21.220Z,19.75
2023-03-05T04:45:55.946Z,21.00
2023-03-05T04:46:27.779Z,18.85
2023-03-05T04:46:59.573Z,18.00
2023-03-05T04:47:32.413Z,17.30
2023-03-05T04:48:04.496Z,20.52
2023-03-05T04:48:36.307Z,18.88
2023-03-05T04:49:09.201Z,19.77
2023-03-05T04:49:41.045Z,17.63
2023-03-05T04:50:13.093Z,19.60
2023-03-05T04:50:45.872Z,19.02
2023-03-05T04:51:17.704Z,18.83
2023-03-05T04:51:49.593Z,16.90
2023-03-05T04:52:22.422Z,18.08
2023-03-05T04:52:55.573Z,18.38
2023-03-05T04:53:27.348Z,17.25
2023-03-05T04:54:00.140Z,18.30
2023-03-05T04:54:31.957Z,17.80
2023-03-05T04:55:04.518Z,17.73
2023-03-05T04:55:37.340Z,22.20
2023-03-05T04:56:09.169Z,18.10
2023-03-05T04:56:40.992Z,19.80
2023-03-05T04:57:12.872Z,17.88
2023-03-05T04:57:45.955Z,18.48
2023-03-05T04:58:17.859Z,18.27
2023-03-05T04:58:49.876Z,19.73
2023-03-05T04:59:22.684Z,17.65
2023-03-05T04:59:54.584Z,18.90
2023-03-05T05:00:26.548Z,19.17
2023-03-05T05:01:03.440Z,18.48
2023-03-05T05:01:35.381Z,18.52
2023-03-05T05:02:07.222Z,19.27
2023-03-05T05:02:39.093Z,18.50
2023-03-05T05:03:11.981Z,18.85
2023-03-05T05:03:43.812Z,17.13
2023-03-05T05:04:15.626Z,16.35
2023-03-05T05:04:47.476Z,18.70
2023-03-05T05:05:22.078Z,17.73
2023-03-05T05:05:56.969Z,17.30
2023-03-05T05:06:28.913Z,18.45
2023-03-05T05:07:01.728Z,18.30
2023-03-05T05:07:33.593Z,17.60
2023-03-05T05:08:06.940Z,19.05
2023-03-05T05:08:39.734Z,20.75
2023-03-05T05:09:11.544Z,17.02
2023-03-05T05:09:43.371Z,17.30
2023-03-05T05:10:16.948Z,18.08
2023-03-05T05:10:56.346Z,17.95
2023-03-05T05:11:28.171Z,18.63
2023-03-05T05:12:00.998Z,18.63
2023-03-05T05:12:32.816Z,18.58
2023-03-05T05:13:04.646Z,18.80
2023-03-05T05:13:37.416Z,17.67
2023-03-05T05:14:09.232Z,17.23
2023-03-05T05:14:41.059Z,17.83
2023-03-05T05:15:14.655Z,20.92
2023-03-05T05:15:46.487Z,17.77
2023-03-05T05:16:18.440Z,17.38
2023-03-05T05:16:51.347Z,17.25
2023-03-05T05:17:23.154Z,19.45
2023-03-05T05:17:54.947Z,17.65
2023-03-05T05:18:28.006Z,18.52
2023-03-05T05:18:59.867Z,18.48
2023-03-05T05:19:31.903Z,19.88
2023-03-05T05:20:07.679Z,16.90
2023-03-05T05:20:39.489Z,18.10
2023-03-05T05:21:13.520Z,16.65
2023-03-05T05:21:46.291Z,17.95
2023-03-05T05:22:18.461Z,18.50
2023-03-05T05:22:50.824Z,18.70
2023-03-05T05:23:25.261Z,17.83
2023-03-05T05:23:57.086Z,19.10
2023-03-05T05:24:28.905Z,16.05
2023-03-05T05:25:01.054Z,18.58
2023-03-05T05:25:33.887Z,19.08
2023-03-05T05:26:07.604Z,18.25
2023-03-05T05:26:39.382Z,18.70
2023-03-05T05:27:12.170Z,18.45
2023-03-05T05:27:44.021Z,18.00
2023-03-05T05:28:15.795Z,17.65
2023-03-05T05:28:48.972Z,19.17
2023-03-05T05:29:20.779Z,16.90
2023-03-05T05:29:52.972Z,20.02
2023-03-05T05:30:24.865Z,17.63
2023-03-05T05:30:58.369Z,17.02
2023-03-05T05:31:30.212Z,19.73
2023-03-05T05:32:02.074Z,16.60
2023-03-05T05:32:34.426Z,19.58
2023-03-05T05:33:07.300Z,18.67
2023-03-05T05:33:39.329Z,19.52
2023-03-05T05:34:11.116Z,19.83
2023-03-05T05:34:43.866Z,19.63
2023-03-05T05:35:15.846Z,18.92
2023-03-05T05:35:47.755Z,18.45
2023-03-05T05:36:22.144Z,18.83
2023-03-05T05:36:54.039Z,18.08
2023-03-05T05:37:27.989Z,20.90
2023-03-05T05:37:59.817Z,18.95
2023-03-05T05:38:33.343Z,21.85
2023-03-05T05:39:06.276Z,18.30
2023-03-05T05:39:38.258Z,19.08
2023-03-05T05:40:11.358Z,20.98
2023-03-05T05:40:44.253Z,20.38
2023-03-05T05:41:18.091Z,19.77
2023-03-05T05:41:51.413Z,19.73
2023-03-05T05:42:25.866Z,20.83
2023-03-05T05:42:57.674Z,20.95
2023-03-05T05:43:29.505Z,19.80
2023-03-05T05:44:02.262Z,18.52
2023-03-05T05:44:34.849Z,20.70
2023-03-05T05:45:08.039Z,20.23
2023-03-05T05:45:40.074Z,19.50
2023-03-05T05:46:15.573Z,21.20
2023-03-05T05:46:47.456Z,20.83
2023-03-05T05:47:20.435Z,19.48
2023-03-05T05:47:53.265Z,19.33
2023-03-05T05:48:25.122Z,22.02
2023-03-05T05:48:56.951Z,19.50
2023-03-05T05:49:29.751Z,19.40
2023-03-05T05:50:01.559Z,21.85
2023-03-05T05:50:33.393Z,17.65
2023-03-05T05:51:07.394Z,20.85
2023-03-05T05:51:39.195Z,18.52
2023-03-05T05:52:11.198Z,19.88
2023-03-05T05:52:43.987Z,20.13
2023-03-05T05:53:15.845Z,20.23
2023-03-05T05:53:49.558Z,18.65
2023-03-05T05:54:22.329Z,19.48
2023-03-05T05:54:54.194Z,20.52
2023-03-05T05:55:26.032Z,18.70
2023-03-05T05:55:58.947Z,19.55
2023-03-05T05:56:30.767Z,22.73
2023-03-05T05:57:02.571Z,18.85
2023-03-05T05:57:34.740Z,19.13
2023-03-05T05:58:07.623Z,18.95
2023-03-05T05:58:40.913Z,20.50
2023-03-05T05:59:12.695Z,19.50
2023-03-05T05:59:45.493Z,19.98
2023-03-05T06:00:18.067Z,20.58
2023-03-05T06:00:49.875Z,20.10
2023-03-05T06:01:25.173Z,17.73
2023-03-05T06:01:57.165Z,19.38
2023-03-05T06:02:28.998Z,19.17
2023-03-05T06:03:01.876Z,18.85
2023-03-05T06:03:33.733Z,18.05
2023-03-05T06:04:05.509Z,19.17
2023-03-05T06:04:39.923Z,17.55
2023-03-05T06:05:14.625Z,17.58
2023-03-05T06:05:47.537Z,17.08
2023-03-05T06:06:22.668Z,18.13
2023-03-05T06:06:54.524Z,17.13
2023-03-05T06:07:26.412Z,19.80
2023-03-05T06:07:59.164Z,21.08
2023-03-05T06:08:31.008Z,19.15
2023-03-05T06:09:04.482Z,18.98
2023-03-05T06:09:37.552Z,17.45
2023-03-05T06:10:10.470Z,18.10
2023-03-05T06:10:42.309Z,20.27
2023-03-05T06:11:17.137Z,18.38
2023-03-05T06:11:50.671Z,18.05
2023-03-05T06:12:22.449Z,18.55
2023-03-05T06:12:55.207Z,19.70
2023-03-05T06:13:27.017Z,15.93
2023-03-05T06:13:58.899Z,17.83
2023-03-05T06:14:31.731Z,19.48
2023-03-05T06:15:04.341Z,17.58
2023-03-05T06:15:36.246Z,19.75
2023-03-05T06:16:12.085Z,19.73
2023-03-05T06:16:44.031Z,17.50
2023-03-05T06:17:25.100Z,18.05
2023-03-05T06:18:03.076Z,18.38
2023-03-05T06:18:35.154Z,17.23
2023-03-05T06:19:07.042Z,17.50
2023-03-05T06:19:39.815Z,18.98
2023-03-05T06:20:12.504Z,18.50
2023-03-05T06:20:44.288Z,18.88
2023-03-05T06:21:18.653Z,17.10
2023-03-05T06:21:50.461Z,16.90
2023-03-05T06:22:22.296Z,16.52
2023-03-05T06:22:55.092Z,17.52
2023-03-05T06:23:27.684Z,17.42
2023-03-05T06:23:59.514Z,17.00
2023-03-05T06:24:33.666Z,15.93
2023-03-05T06:25:06.852Z,17.63
2023-03-05T06:25:38.666Z,18.67
2023-03-05T06:26:13.716Z,18.60
2023-03-05T06:26:46.635Z,18.00
2023-03-05T06:27:18.521Z,18.10
2023-03-05T06:27:51.270Z,18.55
2023-03-05T06:28:23.202Z,17.67
2023-03-05T06:28:55.281Z,16.13
2023-03-05T06:29:28.140Z,16.42
2023-03-05T06:30:00.054Z,16.92
2023-03-05T06:30:31.873Z,16.65
2023-03-05T06:31:06.735Z,17.25
2023-03-05T06:31:39.310Z,18.40
2023-03-05T06:32:11.149Z,16.02
2023-03-05T06:32:44.014Z,20.35
2023-03-05T06:33:16.018Z,18.25
2023-03-05T06:33:48.443Z,17.60
2023-03-05T06:34:21.218Z,18.60
2023-03-05T06:34:53.255Z,18.90
2023-03-05T06:35:25.160Z,17.88
2023-03-05T06:35:58.174Z,16.55
2023-03-05T06:36:30.217Z,18.05
2023-03-05T06:37:02.305Z,18.27
2023-03-05T06:37:35.139Z,19.08
2023-03-05T06:38:07.968Z,17.80
2023-03-05T06:38:40.521Z,19.15
2023-03-05T06:39:13.381Z,17.60
2023-03-05T06:39:46.515Z,18.90
2023-03-05T06:40:18.628Z,20.67
2023-03-05T06:40:51.558Z,17.67
2023-03-05T06:41:25.932Z,18.02
2023-03-05T06:41:57.757Z,18.65
2023-03-05T06:42:30.555Z,17.75
2023-03-05T06:43:02.340Z,20.17
2023-03-05T06:43:35.633Z,19.45
2023-03-05T06:44:08.423Z,18.00
2023-03-05T06:44:40.854Z,18.98
2023-03-05T06:45:13.065Z,19.35
2023-03-05T06:45:45.896Z,17.42
2023-03-05T06:46:19.849Z,20.02
2023-03-05T06:46:51.716Z,18.83
2023-03-05T06:47:24.477Z,17.58
2023-03-05T06:47:56.262Z,18.85
2023-03-05T06:48:28.089Z,18.27
2023-03-05T06:49:03.695Z,19.05
2023-03-05T06:49:35.486Z,19.80
2023-03-05T06:50:08.986Z,18.88
2023-03-05T06:50:40.787Z,20.33
2023-03-05T06:51:17.373Z,18.40
2023-03-05T06:51:50.180Z,20.30
2023-03-05T06:52:21.982Z,19.42
2023-03-05T06:52:53.819Z,18.92
2023-03-05T06:53:27.112Z,18.15
2023-03-05T06:54:01.560Z,21.38
2023-03-05T06:54:33.443Z,18.27
2023-03-05T06:55:08.298Z,18.50
2023-03-05T06:55:40.226Z,18.23
2023-03-05T06:56:13.918Z,20.10
2023-03-05T06:56:48.092Z,18.90
2023-03-05T06:57:20.003Z,19.92
2023-03-05T06:57:51.807Z,20.40
2023-03-05T06:58:24.836Z,18.17
2023-03-05T06:58:56.935Z,18.88
2023-03-05T06:59:28.804Z,18.42
2023-03-05T07:00:01.584Z,17.95
2023-03-05T07:00:33.384Z,18.58
2023-03-05T07:01:06.140Z,17.75
2023-03-05T07:01:39.015Z,19.17
2023-03-05T07:02:11.892Z,18.88